Time;durP1;ratioP1;P1;durP2;ratioP2;P2;SDS_P1;SDS_P2;PMS_P1;PMS_P2;Temp;Humidity;BMP_temperature;BMP_pressure;BME280_temperature;BME280_humidity;BME280_pressure;Samples;Min_cycle;Max_cycle;Signal;HPM_P1;HPM_P2
2022/12/26 00:01:53;;;;;;;1.60;1.50;;;;;;;;;;5037134;28;20033;-22
2022/12/26 00:04:20;;;;;;;1.10;1.02;;;;;;;;;;5036314;28;20045;-24
2022/12/26 00:06:46;;;;;;;1.17;1.10;;;;;;;;;;5036635;28;20052;-21
2022/12/26 00:09:12;;;;;;;1.40;1.30;;;;;;;;;;5036336;28;20096;-26
2022/12/26 00:11:39;;;;;;;1.20;1.20;;;;;;;;;;5036138;28;20033;-22
2022/12/26 00:14:10;;;;;;;1.75;1.65;;;;;;;;;;5035260;28;20029;-22
2022/12/26 00:16:36;;;;;;;1.00;1.00;;;;;;;;;;5036206;28;20037;-21
2022/12/26 00:19:03;;;;;;;1.40;1.30;;;;;;;;;;5036107;28;20051;-23
2022/12/26 00:21:30;;;;;;;1.48;1.38;;;;;;;;;;5036088;28;20041;-24
2022/12/26 00:23:57;;;;;;;1.10;1.10;;;;;;;;;;5036222;28;20104;-26
2022/12/26 00:26:24;;;;;;;1.42;1.33;;;;;;;;;;5036000;28;20033;-23
2022/12/26 00:28:50;;;;;;;1.42;1.33;;;;;;;;;;5036217;28;20025;-22
2022/12/26 00:31:25;;;;;;;1.58;1.35;;;;;;;;;;5036125;28;20064;-22
2022/12/26 00:33:51;;;;;;;1.08;1.08;;;;;;;;;;5035770;28;20026;-22
2022/12/26 00:36:19;;;;;;;1.50;1.33;;;;;;;;;;5036113;28;20061;-22
2022/12/26 00:38:46;;;;;;;1.10;1.10;;;;;;;;;;5035997;28;20330;-21
2022/12/26 00:41:13;;;;;;;1.58;1.48;;;;;;;;;;5035697;28;20034;-24
2022/12/26 00:43:40;;;;;;;1.17;1.15;;;;;;;;;;5035836;28;20397;-26
2022/12/26 00:46:07;;;;;;;1.10;1.00;;;;;;;;;;5035922;28;20175;-22
2022/12/26 00:48:33;;;;;;;1.40;1.30;;;;;;;;;;5035858;28;20084;-23
2022/12/26 00:50:59;;;;;;;1.35;1.25;;;;;;;;;;5035123;28;20078;-26
2022/12/26 00:53:26;;;;;;;1.30;1.20;;;;;;;;;;5051103;28;20453;-23
2022/12/26 00:55:52;;;;;;;1.65;1.33;;;;;;;;;;5035687;28;20052;-22
2022/12/26 00:58:19;;;;;;;1.40;1.30;;;;;;;;;;5035343;28;20021;-24
2022/12/26 01:00:45;;;;;;;1.40;1.30;;;;;;;;;;5035287;28;20087;-25
2022/12/26 01:03:12;;;;;;;1.90;1.80;;;;;;;;;;5035030;28;20029;-23
2022/12/26 01:05:48;;;;;;;1.25;1.23;;;;;;;;;;5035587;28;20400;-22
2022/12/26 01:08:14;;;;;;;1.33;1.23;;;;;;;;;;5035239;28;20029;-22
2022/12/26 01:10:41;;;;;;;1.30;1.20;;;;;;;;;;5035354;28;20388;-23
2022/12/26 01:13:08;;;;;;;1.40;1.30;;;;;;;;;;5035061;28;20041;-26
2022/12/26 01:15:34;;;;;;;1.08;1.08;;;;;;;;;;5035117;28;20096;-23
2022/12/26 01:18:00;;;;;;;1.35;1.25;;;;;;;;;;5035057;28;20030;-22
2022/12/26 01:20:27;;;;;;;1.02;1.02;;;;;;;;;;5035288;28;20034;-23
2022/12/26 01:22:54;;;;;;;1.77;1.67;;;;;;;;;;5034983;28;20033;-22
2022/12/26 01:25:20;;;;;;;1.52;1.42;;;;;;;;;;5034958;28;20029;-23
2022/12/26 01:27:46;;;;;;;1.23;1.17;;;;;;;;;;5034885;28;20037;-24
2022/12/26 01:30:12;;;;;;;1.42;1.33;;;;;;;;;;5034872;28;20090;-23
2022/12/26 01:32:39;;;;;;;1.25;1.20;;;;;;;;;;5050388;28;20033;-21
2022/12/26 01:35:05;;;;;;;1.35;1.20;;;;;;;;;;5035087;28;20033;-25
2022/12/26 01:37:31;;;;;;;0.98;0.98;;;;;;;;;;5034786;28;20026;-21
2022/12/26 01:39:57;;;;;;;2.40;1.38;;;;;;;;;;5034801;28;20056;-22
2022/12/26 01:42:25;;;;;;;1.20;1.10;;;;;;;;;;5034621;28;20029;-22
2022/12/26 01:45:06;;;;;;;1.00;1.00;;;;;;;;;;5034994;28;20033;-22
2022/12/26 01:47:41;;;;;;;1.00;1.00;;;;;;;;;;5034979;28;20033;-25
2022/12/26 01:50:14;;;;;;;1.20;1.10;;;;;;;;;;5034594;28;20034;-25
2022/12/26 01:52:43;;;;;;;1.48;1.38;;;;;;;;;;5034785;28;20022;-21
2022/12/26 01:55:11;;;;;;;1.35;1.30;;;;;;;;;;5034897;28;20460;-22
2022/12/26 01:57:48;;;;;;;1.20;1.20;;;;;;;;;;5034522;28;20025;-21
2022/12/26 02:00:15;;;;;;;1.40;1.30;;;;;;;;;;5034577;28;20156;-22
2022/12/26 02:05:35;;;;;;;1.30;1.20;;;;;;;;;;5038697;28;20052;-23
2022/12/26 02:08:05;;;;;;;1.58;1.48;;;;;;;;;;5038933;28;20026;-25
2022/12/26 02:10:33;;;;;;;1.40;1.20;;;;;;;;;;5038775;28;20045;-22
2022/12/26 02:13:00;;;;;;;1.90;1.20;;;;;;;;;;5038660;28;20033;-22
2022/12/26 02:15:26;;;;;;;1.15;1.05;;;;;;;;;;5038425;28;20025;-22
2022/12/26 02:17:53;;;;;;;1.40;1.30;;;;;;;;;;5038675;28;20049;-23
2022/12/26 02:20:22;;;;;;;1.15;1.15;;;;;;;;;;5038617;28;20406;-22
2022/12/26 02:23:07;;;;;;;1.58;1.48;;;;;;;;;;5038203;28;20033;-22
2022/12/26 02:25:42;;;;;;;1.10;0.98;;;;;;;;;;5053959;28;20124;-21
2022/12/26 02:28:11;;;;;;;1.27;1.25;;;;;;;;;;5053902;28;20524;-22
2022/12/26 02:30:41;;;;;;;1.17;1.08;;;;;;;;;;5038661;28;20029;-22
2022/12/26 02:33:18;;;;;;;1.13;1.10;;;;;;;;;;5038378;28;20032;-21
2022/12/26 02:35:51;;;;;;;1.38;1.27;;;;;;;;;;5038089;28;20104;-21
2022/12/26 02:38:33;;;;;;;1.33;1.23;;;;;;;;;;5038042;28;20021;-22
2022/12/26 02:41:18;;;;;;;1.30;1.20;;;;;;;;;;5053687;28;20103;-24
2022/12/26 02:47:01;;;;;;;1.55;1.25;;;;;;;;;;5037853;28;20025;-22
2022/12/26 02:47:03;;;;;;;1.48;1.38;;;;;;;;;;5037947;28;20368;-23
2022/12/26 03:13:09;;;;;;;1.13;1.13;;;;;;;;;;5037848;28;20037;-22
2022/12/26 03:14:44;;;;;;;1.60;1.50;;;;;;;;;;5037806;28;20040;-27
2022/12/26 03:17:21;;;;;;;1.10;1.10;;;;;;;;;;5037600;28;20037;-22
2022/12/26 03:19:59;;;;;;;1.40;1.30;;;;;;;;;;5052972;28;20017;-22
2022/12/26 03:22:32;;;;;;;1.05;1.02;;;;;;;;;;5037179;28;20037;-21
2022/12/26 03:27:45;;;;;;;1.40;1.30;;;;;;;;;;5037458;28;20515;-23
2022/12/26 03:32:57;;;;;;;1.27;1.27;;;;;;;;;;5036907;28;20106;-22
2022/12/26 03:35:23;;;;;;;1.35;1.25;;;;;;;;;;5037240;28;20040;-25
2022/12/26 03:37:53;;;;;;;1.55;1.45;;;;;;;;;;5036890;28;20041;-23
2022/12/26 04:20:36;;;;;;;1.10;1.10;;;;;;;;;;5036196;28;20483;-22
2022/12/26 04:45:28;;;;;;;0.93;0.93;;;;;;;;;;5035938;28;20056;-24
2022/12/26 04:50:50;;;;;;;1.60;1.50;;;;;;;;;;5035828;28;20039;-22
2022/12/26 04:53:16;;;;;;;1.30;1.30;;;;;;;;;;5035400;28;20036;-23
2022/12/26 04:55:42;;;;;;;1.67;1.58;;;;;;;;;;5035497;28;20026;-24
2022/12/26 04:58:09;;;;;;;1.50;1.40;;;;;;;;;;5036014;28;20022;-30
2022/12/26 05:00:35;;;;;;;1.20;1.20;;;;;;;;;;5035408;28;20026;-22
2022/12/26 05:11:23;;;;;;;1.60;1.50;;;;;;;;;;5035632;28;20107;-21
2022/12/26 05:13:49;;;;;;;1.30;1.20;;;;;;;;;;5035105;28;20101;-21
2022/12/26 05:30:02;;;;;;;1.10;1.10;;;;;;;;;;5035471;28;20095;-22
2022/12/26 05:35:13;;;;;;;1.27;1.17;;;;;;;;;;5034916;28;20098;-24
2022/12/26 05:37:39;;;;;;;1.33;1.33;;;;;;;;;;5033975;28;20037;-24
2022/12/26 05:40:06;;;;;;;1.55;1.45;;;;;;;;;;5035035;28;20352;-22
2022/12/26 05:42:32;;;;;;;1.20;1.20;;;;;;;;;;5035076;28;20036;-22
2022/12/26 05:44:58;;;;;;;1.05;1.05;;;;;;;;;;5034694;28;20423;-21
2022/12/26 05:47:25;;;;;;;1.10;1.05;;;;;;;;;;5034965;28;20330;-22
2022/12/26 05:49:51;;;;;;;1.30;1.20;;;;;;;;;;5050247;28;20040;-24
2022/12/26 05:52:17;;;;;;;1.35;1.35;;;;;;;;;;5034718;28;20097;-21
2022/12/26 05:54:43;;;;;;;1.20;1.20;;;;;;;;;;5034895;28;20033;-22
2022/12/26 05:57:09;;;;;;;1.30;1.30;;;;;;;;;;5034631;28;20087;-22
2022/12/26 05:59:35;;;;;;;1.42;1.42;;;;;;;;;;5034610;28;20104;-24
2022/12/26 06:02:01;;;;;;;1.60;1.50;;;;;;;;;;5500805;22;21670;-28
2022/12/26 06:04:28;;;;;;;1.30;1.23;;;;;;;;;;5053182;28;20055;-28
2022/12/26 06:06:55;;;;;;;1.20;1.20;;;;;;;;;;5054438;28;20036;-28
2022/12/26 06:09:24;;;;;;;1.60;1.50;;;;;;;;;;5054349;28;20033;-28
2022/12/26 06:11:50;;;;;;;1.55;1.45;;;;;;;;;;5053225;28;20029;-28
2022/12/26 06:14:16;;;;;;;1.50;1.40;;;;;;;;;;5054303;28;20032;-28
2022/12/26 06:16:42;;;;;;;1.40;1.30;;;;;;;;;;5054560;28;20025;-28
2022/12/26 06:19:09;;;;;;;1.58;1.48;;;;;;;;;;5054272;28;20022;-27
2022/12/26 06:21:35;;;;;;;1.70;1.60;;;;;;;;;;5054256;28;20410;-27
2022/12/26 06:24:01;;;;;;;1.73;1.63;;;;;;;;;;5054434;28;20032;-28
2022/12/26 06:26:27;;;;;;;1.70;1.60;;;;;;;;;;5053276;28;20029;-27
2022/12/26 06:28:53;;;;;;;1.40;1.20;;;;;;;;;;5053202;28;20056;-28
2022/12/26 06:31:21;;;;;;;1.50;1.40;;;;;;;;;;5054092;28;20029;-28
2022/12/26 06:33:52;;;;;;;1.42;1.33;;;;;;;;;;5054111;28;20463;-27
2022/12/26 06:36:19;;;;;;;1.00;1.00;;;;;;;;;;5054155;28;20029;-27
2022/12/26 06:38:46;;;;;;;1.50;1.40;;;;;;;;;;5054036;28;20029;-27
2022/12/26 06:41:13;;;;;;;1.55;1.45;;;;;;;;;;5054101;28;20029;-28
2022/12/26 06:43:39;;;;;;;1.20;1.20;;;;;;;;;;5054004;28;20025;-28
2022/12/26 06:46:06;;;;;;;1.05;1.05;;;;;;;;;;5054271;28;20029;-28
2022/12/26 06:48:38;;;;;;;1.63;1.52;;;;;;;;;;5053988;28;20086;-28
2022/12/26 06:51:07;;;;;;;1.20;1.20;;;;;;;;;;5057539;28;20037;-28
2022/12/26 06:53:34;;;;;;;1.10;1.10;;;;;;;;;;5057886;28;20363;-28
2022/12/26 06:56:06;;;;;;;1.33;1.33;;;;;;;;;;5056693;28;20025;-28
2022/12/26 06:58:32;;;;;;;1.70;1.60;;;;;;;;;;5057885;28;20029;-27
2022/12/26 07:01:06;;;;;;;1.52;1.50;;;;;;;;;;5057892;28;20025;-27
2022/12/26 07:03:32;;;;;;;1.50;1.40;;;;;;;;;;5057272;28;20041;-27
2022/12/26 07:06:02;;;;;;;1.48;1.48;;;;;;;;;;5056524;28;20120;-27
2022/12/26 07:08:28;;;;;;;1.77;1.67;;;;;;;;;;5057399;28;20033;-27
2022/12/26 07:10:54;;;;;;;1.10;1.10;;;;;;;;;;5057279;28;20027;-28
2022/12/26 07:13:20;;;;;;;1.65;1.55;;;;;;;;;;5057378;28;20021;-28
2022/12/26 07:15:46;;;;;;;1.45;1.40;;;;;;;;;;5057216;28;20071;-28
2022/12/26 07:18:12;;;;;;;1.23;1.23;;;;;;;;;;5057209;28;20047;-28
2022/12/26 07:20:38;;;;;;;1.50;1.40;;;;;;;;;;5057470;28;20036;-28
2022/12/26 07:23:04;;;;;;;1.50;1.40;;;;;;;;;;5057059;28;20174;-27
2022/12/26 07:25:31;;;;;;;1.60;1.50;;;;;;;;;;5057421;28;20158;-27
2022/12/26 07:27:57;;;;;;;1.50;1.42;;;;;;;;;;5056097;28;20040;-28
2022/12/26 07:30:23;;;;;;;1.60;1.50;;;;;;;;;;5056999;28;20108;-28
2022/12/26 07:32:49;;;;;;;1.63;1.52;;;;;;;;;;5055888;28;20367;-27
2022/12/26 07:35:15;;;;;;;1.48;1.38;;;;;;;;;;5056906;28;20440;-28
2022/12/26 07:37:41;;;;;;;1.95;1.80;;;;;;;;;;5056871;28;20103;-28
2022/12/26 07:40:08;;;;;;;1.70;1.60;;;;;;;;;;5056804;28;20021;-28
2022/12/26 07:42:34;;;;;;;1.55;1.45;;;;;;;;;;5055854;28;20035;-28
2022/12/26 07:45:00;;;;;;;1.35;1.30;;;;;;;;;;5055773;28;20400;-28
2022/12/26 07:47:26;;;;;;;1.80;1.30;;;;;;;;;;5056959;28;20032;-28
2022/12/26 07:49:52;;;;;;;1.38;1.38;;;;;;;;;;5056872;28;20025;-27
2022/12/26 07:52:19;;;;;;;1.48;1.40;;;;;;;;;;5056700;28;20043;-28
2022/12/26 07:54:45;;;;;;;1.67;1.58;;;;;;;;;;5056607;28;20029;-27
2022/12/26 07:57:11;;;;;;;1.50;1.40;;;;;;;;;;5056839;28;20025;-27
2022/12/26 07:59:37;;;;;;;1.52;1.42;;;;;;;;;;5056718;28;20021;-28
2022/12/26 08:02:03;;;;;;;1.67;1.58;;;;;;;;;;5055530;28;20029;-27
2022/12/26 08:04:31;;;;;;;1.13;1.08;;;;;;;;;;5055410;28;20134;-28
2022/12/26 08:06:57;;;;;;;1.40;1.30;;;;;;;;;;5056352;28;20025;-28
2022/12/26 08:09:23;;;;;;;1.20;1.17;;;;;;;;;;5056557;28;20052;-27
2022/12/26 08:11:49;;;;;;;1.63;1.52;;;;;;;;;;5056129;28;20037;-28
2022/12/26 08:14:15;;;;;;;1.50;1.40;;;;;;;;;;5055264;28;20455;-28
2022/12/26 08:16:42;;;;;;;1.60;1.50;;;;;;;;;;5055182;28;20020;-28
2022/12/26 08:19:08;;;;;;;1.75;1.65;;;;;;;;;;5056124;28;20045;-28
2022/12/26 08:21:34;;;;;;;1.60;1.50;;;;;;;;;;5056044;28;20082;-28
2022/12/26 08:24:01;;;;;;;1.60;1.50;;;;;;;;;;5056180;28;20040;-28
2022/12/26 08:26:27;;;;;;;1.98;1.70;;;;;;;;;;5055933;28;20036;-28
2022/12/26 08:28:54;;;;;;;1.25;1.25;;;;;;;;;;5055921;28;20039;-28
2022/12/26 08:31:21;;;;;;;1.77;1.67;;;;;;;;;;5056036;28;20348;-27
2022/12/26 08:33:48;;;;;;;1.58;1.48;;;;;;;;;;5055736;28;20029;-27
2022/12/26 08:36:18;;;;;;;1.58;1.48;;;;;;;;;;5056037;28;20047;-28
2022/12/26 08:38:44;;;;;;;1.38;1.38;;;;;;;;;;5055759;28;20036;-27
2022/12/26 08:41:10;;;;;;;1.70;1.60;;;;;;;;;;5054741;28;20037;-28
2022/12/26 08:43:37;;;;;;;1.90;1.55;;;;;;;;;;5055511;28;20028;-27
2022/12/26 08:46:07;;;;;;;1.52;1.42;;;;;;;;;;5055571;28;20059;-28
2022/12/26 08:48:34;;;;;;;1.55;1.45;;;;;;;;;;5055497;28;20043;-28
2022/12/26 08:51:01;;;;;;;1.48;1.38;;;;;;;;;;5055693;28;20025;-28
2022/12/26 08:53:28;;;;;;;1.45;1.35;;;;;;;;;;5054401;28;20035;-28
2022/12/26 08:55:54;;;;;;;1.67;1.58;;;;;;;;;;5055614;28;20036;-27
2022/12/26 08:58:21;;;;;;;2.13;2.03;;;;;;;;;;5055636;28;20021;-28
2022/12/26 09:00:47;;;;;;;3.42;1.30;;;;;;;;;;5055552;28;20109;-27
2022/12/26 09:03:14;;;;;;;1.30;1.20;;;;;;;;;;5054481;28;20040;-27
2022/12/26 09:05:40;;;;;;;1.70;1.60;;;;;;;;;;5055980;28;20060;-28
2022/12/26 09:08:06;;;;;;;1.80;1.70;;;;;;;;;;5055424;28;20017;-27
2022/12/26 09:10:33;;;;;;;1.75;1.65;;;;;;;;;;5055932;28;20032;-28
2022/12/26 09:12:59;;;;;;;1.60;1.50;;;;;;;;;;5053821;28;20025;-28
2022/12/26 09:15:25;;;;;;;1.70;1.60;;;;;;;;;;5055279;28;20021;-28
2022/12/26 09:17:51;;;;;;;1.50;1.40;;;;;;;;;;5054950;28;20036;-28
2022/12/26 09:20:17;;;;;;;1.90;1.80;;;;;;;;;;5054924;28;20031;-28
2022/12/26 09:22:49;;;;;;;2.00;1.90;;;;;;;;;;5054831;28;20372;-28
2022/12/26 09:25:19;;;;;;;1.20;1.20;;;;;;;;;;5055204;28;20028;-27
2022/12/26 09:27:45;;;;;;;1.60;1.50;;;;;;;;;;5054816;28;20024;-28
2022/12/26 09:30:12;;;;;;;1.73;1.63;;;;;;;;;;5053854;28;20117;-28
2022/12/26 09:32:38;;;;;;;1.98;1.83;;;;;;;;;;5054609;28;20024;-27
2022/12/26 09:35:04;;;;;;;1.88;1.77;;;;;;;;;;5053778;28;20043;-28
2022/12/26 09:37:30;;;;;;;1.85;1.75;;;;;;;;;;5054651;28;20039;-28
2022/12/26 09:39:57;;;;;;;2.83;1.52;;;;;;;;;;5054896;28;20100;-28
2022/12/26 09:42:28;;;;;;;1.83;1.73;;;;;;;;;;5054830;28;20363;-28
2022/12/26 09:44:57;;;;;;;1.80;1.70;;;;;;;;;;5055396;28;20058;-28
2022/12/26 09:47:33;;;;;;;1.63;1.52;;;;;;;;;;5054868;28;20173;-27
2022/12/26 09:50:20;;;;;;;1.85;1.75;;;;;;;;;;5054617;28;20036;-28
2022/12/26 09:52:51;;;;;;;1.52;1.42;;;;;;;;;;5054300;28;20025;-27
2022/12/26 09:55:17;;;;;;;;;;;;;;;;;;5053993;28;20032;-27
2022/12/26 09:57:44;;;;;;;1.70;1.60;;;;;;;;;;5054497;28;19909;-28
2022/12/26 10:00:16;;;;;;;1.67;1.58;;;;;;;;;;5053506;28;20029;-28
2022/12/26 10:02:42;;;;;;;;;;;;;;;;;;5053680;28;20098;-28
2022/12/26 10:05:13;;;;;;;1.70;1.40;;;;;;;;;;5053532;28;19947;-27
2022/12/26 10:07:39;;;;;;;;;;;;;;;;;;5055136;28;20021;-27
2022/12/26 10:10:20;;;;;;;1.73;1.63;;;;;;;;;;5053440;28;20381;-28
2022/12/26 10:12:49;;;;;;;1.63;1.52;;;;;;;;;;5054274;28;20036;-28
2022/12/26 10:15:24;;;;;;;1.75;1.65;;;;;;;;;;5054575;28;20048;-27
2022/12/26 10:17:55;;;;;;;1.65;1.55;;;;;;;;;;5054233;28;20036;-28
2022/12/26 10:20:22;;;;;;;1.60;1.50;;;;;;;;;;5054585;28;20436;-28
2022/12/26 10:22:58;;;;;;;1.92;1.83;;;;;;;;;;5054254;28;20492;-28
2022/12/26 10:25:38;;;;;;;1.58;1.45;;;;;;;;;;5057209;28;20037;-28
2022/12/26 10:28:04;;;;;;;1.70;1.60;;;;;;;;;;5058248;28;20029;-28
2022/12/26 10:30:34;;;;;;;1.40;1.30;;;;;;;;;;5058400;28;20040;-27
2022/12/26 10:33:03;;;;;;;1.43;1.33;;;;;;;;;;5058064;28;20029;-27
2022/12/26 10:35:32;;;;;;;1.65;1.55;;;;;;;;;;5058035;28;20032;-28
2022/12/26 10:38:01;;;;;;;1.60;1.50;;;;;;;;;;5058329;28;20063;-28
2022/12/26 10:40:31;;;;;;;1.90;1.80;;;;;;;;;;5058741;28;20029;-28
2022/12/26 10:43:00;;;;;;;1.75;1.48;;;;;;;;;;5057820;28;20111;-27
2022/12/26 10:45:29;;;;;;;1.50;1.40;;;;;;;;;;5057855;28;20025;-28
2022/12/26 10:47:55;;;;;;;2.10;1.75;;;;;;;;;;5058135;28;20025;-28
2022/12/26 10:50:25;;;;;;;1.70;1.60;;;;;;;;;;5057808;28;20033;-27
2022/12/26 10:52:52;;;;;;;1.80;1.70;;;;;;;;;;5057894;28;20036;-28
2022/12/26 10:55:19;;;;;;;2.10;2.00;;;;;;;;;;5057671;28;20082;-28
2022/12/26 10:57:50;;;;;;;2.05;1.42;;;;;;;;;;5057641;28;20021;-28
2022/12/26 11:00:20;;;;;;;1.40;1.30;;;;;;;;;;5057934;28;20025;-27
2022/12/26 11:03:01;;;;;;;1.90;1.80;;;;;;;;;;5057435;28;20045;-28
2022/12/26 11:05:27;;;;;;;1.95;1.85;;;;;;;;;;5057830;28;20064;-28
2022/12/26 11:08:04;;;;;;;1.52;1.42;;;;;;;;;;5057421;28;20044;-28
2022/12/26 11:10:31;;;;;;;1.77;1.67;;;;;;;;;;5057728;28;20037;-28
2022/12/26 11:13:01;;;;;;;1.67;1.58;;;;;;;;;;5057257;28;20036;-27
2022/12/26 11:15:39;;;;;;;1.33;1.33;;;;;;;;;;5057641;28;20029;-27
2022/12/26 11:18:15;;;;;;;1.80;1.70;;;;;;;;;;5057248;28;20444;-28
2022/12/26 11:20:41;;;;;;;1.70;1.60;;;;;;;;;;5057251;28;20025;-28
2022/12/26 11:23:20;;;;;;;1.88;1.77;;;;;;;;;;5057093;28;20021;-28
2022/12/26 11:25:56;;;;;;;1.65;1.48;;;;;;;;;;5057452;28;20406;-27
2022/12/26 11:28:27;;;;;;;1.63;1.52;;;;;;;;;;5057148;28;20120;-28
2022/12/26 11:30:54;;;;;;;1.83;1.73;;;;;;;;;;5056931;28;20124;-28
2022/12/26 11:33:25;;;;;;;1.88;1.77;;;;;;;;;;5057035;28;20045;-28
2022/12/26 11:35:51;;;;;;;;;;;;;;;;;;5054988;28;20029;-28
2022/12/26 11:38:34;;;;;;;1.58;1.48;;;;;;;;;;5057241;28;19905;-28
2022/12/26 11:43:48;;;;;;;1.85;1.75;;;;;;;;;;5057308;28;20102;-28
2022/12/26 11:46:14;;;;;;;1.63;1.52;;;;;;;;;;5056727;28;20115;-28
2022/12/26 11:48:40;;;;;;;1.77;1.67;;;;;;;;;;5056726;28;20039;-27
2022/12/26 11:51:07;;;;;;;2.05;1.90;;;;;;;;;;5056544;28;20021;-28
2022/12/26 11:53:33;;;;;;;1.83;1.73;;;;;;;;;;5056545;28;20086;-28
2022/12/26 11:56:05;;;;;;;3.55;1.70;;;;;;;;;;5056583;28;20024;-27
2022/12/26 11:58:32;;;;;;;2.13;2.03;;;;;;;;;;5056849;28;20021;-28
2022/12/26 12:00:58;;;;;;;1.75;1.65;;;;;;;;;;5055508;28;20087;-28
2022/12/26 12:03:31;;;;;;;2.10;2.00;;;;;;;;;;5056153;28;20060;-28
2022/12/26 12:06:00;;;;;;;2.72;1.88;;;;;;;;;;5056343;28;20040;-27
2022/12/26 12:08:59;;;;;;;1.40;1.30;;;;;;;;;;5056612;28;20104;-27
2022/12/26 12:11:48;;;;;;;1.90;1.80;;;;;;;;;;5045315;28;20041;-27
2022/12/26 12:14:33;;;;;;;1.70;1.60;;;;;;;;;;5048357;28;20452;-28
2022/12/26 12:17:19;;;;;;;1.67;1.58;;;;;;;;;;5056166;28;20032;-28
2022/12/26 12:19:48;;;;;;;1.70;1.60;;;;;;;;;;5056377;28;20079;-27
2022/12/26 12:22:30;;;;;;;1.92;1.83;;;;;;;;;;5055941;28;20024;-27
2022/12/26 12:25:08;;;;;;;1.73;1.63;;;;;;;;;;5055920;28;20083;-28
2022/12/26 12:27:42;;;;;;;1.67;1.58;;;;;;;;;;5056222;28;20025;-27
2022/12/26 12:30:28;;;;;;;1.77;1.67;;;;;;;;;;5056243;28;20108;-28
2022/12/26 12:33:04;;;;;;;1.70;1.60;;;;;;;;;;5054709;28;20039;-27
2022/12/26 12:35:49;;;;;;;2.00;1.90;;;;;;;;;;5056124;28;20104;-28
2022/12/26 12:38:39;;;;;;;1.55;1.50;;;;;;;;;;5055813;28;20036;-27
2022/12/26 12:41:24;;;;;;;1.90;1.80;;;;;;;;;;5055680;28;20104;-27
2022/12/26 12:43:55;;;;;;;1.83;1.73;;;;;;;;;;5055594;28;20359;-28
2022/12/26 12:46:21;;;;;;;;;;;;;;;;;;5056316;28;20029;-28
2022/12/26 12:48:47;;;;;;;1.73;1.63;;;;;;;;;;5055453;28;19963;-28
2022/12/26 12:51:21;;;;;;;1.80;1.70;;;;;;;;;;5055709;28;20053;-28
2022/12/26 12:53:50;;;;;;;1.70;1.60;;;;;;;;;;5055389;28;20029;-28
2022/12/26 12:56:19;;;;;;;1.52;1.42;;;;;;;;;;5055431;28;20032;-28
2022/12/26 12:58:50;;;;;;;1.25;1.25;;;;;;;;;;5055331;28;20447;-28
2022/12/26 13:01:36;;;;;;;1.67;1.58;;;;;;;;;;5055638;28;20040;-27
2022/12/26 13:04:12;;;;;;;1.75;1.65;;;;;;;;;;5044742;28;20498;-27
2022/12/26 13:06:42;;;;;;;1.73;1.63;;;;;;;;;;5055252;28;20056;-27
2022/12/26 13:09:19;;;;;;;1.80;1.70;;;;;;;;;;5055427;28;20028;-27
2022/12/26 13:11:49;;;;;;;2.17;2.08;;;;;;;;;;5054942;28;20037;-28
2022/12/26 13:14:38;;;;;;;1.80;1.70;;;;;;;;;;5055371;28;20036;-28
2022/12/26 13:17:09;;;;;;;1.50;1.40;;;;;;;;;;5047284;28;20345;-28
2022/12/26 13:19:37;;;;;;;;;;;;;;;;;;5055700;28;20348;-28
2022/12/26 13:22:06;;;;;;;2.10;1.90;;;;;;;;;;5054870;28;20000;-27
2022/12/26 13:24:40;;;;;;;1.85;1.75;;;;;;;;;;5054885;28;20028;-28
2022/12/26 13:27:18;;;;;;;2.38;2.28;;;;;;;;;;5055152;28;20029;-28
2022/12/26 13:29:45;;;;;;;1.80;1.70;;;;;;;;;;5055613;28;20347;-27
2022/12/26 13:32:20;;;;;;;1.90;1.77;;;;;;;;;;5054735;28;20020;-28
2022/12/26 13:34:46;;;;;;;2.42;1.70;;;;;;;;;;5055537;28;20025;-28
2022/12/26 13:37:31;;;;;;;2.00;1.90;;;;;;;;;;5054719;28;20032;-28
2022/12/26 13:39:59;;;;;;;1.42;1.42;;;;;;;;;;5054692;28;20017;-28
2022/12/26 13:45:39;;;;;;;2.20;2.05;;;;;;;;;;5054984;28;20542;-28
2022/12/26 13:48:17;;;;;;;1.70;1.60;;;;;;;;;;5054893;28;20028;-27
2022/12/26 13:50:46;;;;;;;2.20;1.83;;;;;;;;;;5054806;28;20379;-28
2022/12/26 13:53:25;;;;;;;2.05;1.80;;;;;;;;;;5054477;28;20363;-28
2022/12/26 13:55:52;;;;;;;1.73;1.63;;;;;;;;;;5054339;28;20047;-27
2022/12/26 13:58:24;;;;;;;1.58;1.50;;;;;;;;;;5054102;28;20048;-28
2022/12/26 14:00:52;;;;;;;1.95;1.85;;;;;;;;;;5054191;28;20031;-28
2022/12/26 14:03:27;;;;;;;1.48;1.38;;;;;;;;;;5054206;28;20044;-28
2022/12/26 14:05:58;;;;;;;1.85;1.75;;;;;;;;;;5053462;28;20033;-28
2022/12/26 14:08:30;;;;;;;2.42;2.22;;;;;;;;;;5054724;28;20100;-28
2022/12/26 14:11:02;;;;;;;2.22;1.90;;;;;;;;;;5054339;28;20029;-28
2022/12/26 14:13:48;;;;;;;1.75;1.65;;;;;;;;;;5054560;28;20066;-28
2022/12/26 14:16:14;;;;;;;1.65;1.55;;;;;;;;;;5053288;28;20411;-27
2022/12/26 14:18:59;;;;;;;1.50;1.40;;;;;;;;;;5053350;28;20036;-27
2022/12/26 14:21:31;;;;;;;2.17;2.08;;;;;;;;;;5054296;28;20056;-28
2022/12/26 14:24:10;;;;;;;1.65;1.55;;;;;;;;;;5053252;28;20025;-28
2022/12/26 14:26:51;;;;;;;1.70;1.60;;;;;;;;;;5053307;28;20033;-27
2022/12/26 14:29:29;;;;;;;1.90;1.80;;;;;;;;;;5054483;28;20109;-27
2022/12/26 14:32:09;;;;;;;2.00;1.90;;;;;;;;;;5054038;28;20119;-27
2022/12/26 14:34:38;;;;;;;2.08;1.95;;;;;;;;;;5054489;28;20024;-28
2022/12/26 14:37:20;;;;;;;2.10;1.67;;;;;;;;;;5054405;28;20049;-28
2022/12/26 14:40:01;;;;;;;1.75;1.65;;;;;;;;;;5054094;28;20044;-28
2022/12/26 14:45:33;;;;;;;2.08;1.73;;;;;;;;;;5054112;28;19920;-28
2022/12/26 14:47:59;;;;;;;1.90;1.80;;;;;;;;;;5039968;28;20460;-28
2022/12/26 14:50:31;;;;;;;1.92;1.83;;;;;;;;;;5053971;28;20087;-28
2022/12/26 14:53:16;;;;;;;2.28;2.17;;;;;;;;;;5053721;28;20040;-28
2022/12/26 14:55:48;;;;;;;1.30;1.30;;;;;;;;;;5053932;28;20414;-28
2022/12/26 14:58:23;;;;;;;2.25;2.05;;;;;;;;;;5053903;28;20045;-28
2022/12/26 15:00:49;;;;;;;1.95;1.85;;;;;;;;;;5053889;28;20125;-28
2022/12/26 15:03:34;;;;;;;1.30;1.20;;;;;;;;;;5053717;28;20048;-27
2022/12/26 15:06:17;;;;;;;3.45;2.85;;;;;;;;;;5052942;28;20035;-28
2022/12/26 15:09:02;;;;;;;1.80;1.70;;;;;;;;;;5054428;28;20470;-28
2022/12/26 15:11:37;;;;;;;1.90;1.80;;;;;;;;;;5056240;28;20036;-28
2022/12/26 15:14:21;;;;;;;2.05;1.95;;;;;;;;;;5057541;28;20032;-28
2022/12/26 15:16:50;;;;;;;2.13;1.92;;;;;;;;;;5057556;28;20562;-27
2022/12/26 15:19:32;;;;;;;1.80;1.70;;;;;;;;;;5057564;28;20021;-27
2022/12/26 15:21:58;;;;;;;;;;;;;;;;;;5057815;28;20025;-28
2022/12/26 15:24:33;;;;;;;2.25;2.05;;;;;;;;;;5057212;28;19936;-28
2022/12/26 15:27:18;;;;;;;1.83;1.73;;;;;;;;;;5057487;28;20029;-28
2022/12/26 15:30:10;;;;;;;2.05;1.95;;;;;;;;;;5057063;28;20033;-28
2022/12/26 15:32:39;;;;;;;1.65;1.55;;;;;;;;;;5056962;28;20032;-28
2022/12/26 15:35:06;;;;;;;1.70;1.60;;;;;;;;;;5056938;28;20036;-28
2022/12/26 15:37:47;;;;;;;2.05;1.95;;;;;;;;;;5057228;28;20407;-28
2022/12/26 15:40:15;;;;;;;2.63;1.95;;;;;;;;;;5057492;28;20056;-28
2022/12/26 15:42:51;;;;;;;1.90;1.80;;;;;;;;;;5056789;28;20029;-28
2022/12/26 15:45:36;;;;;;;1.80;1.70;;;;;;;;;;5057104;28;20367;-28
2022/12/26 15:48:20;;;;;;;1.60;1.50;;;;;;;;;;5056999;28;20032;-28
2022/12/26 15:51:05;;;;;;;1.65;1.55;;;;;;;;;;5056941;28;20041;-29
2022/12/26 15:53:37;;;;;;;1.80;1.70;;;;;;;;;;5056663;28;20033;-27
2022/12/26 15:56:03;;;;;;;1.67;1.58;;;;;;;;;;5056579;28;20033;-27
2022/12/26 15:58:32;;;;;;;1.70;1.60;;;;;;;;;;5057161;28;20408;-27
2022/12/26 16:00:58;;;;;;;2.70;1.83;;;;;;;;;;5056486;28;20516;-28
2022/12/26 16:03:30;;;;;;;1.65;1.55;;;;;;;;;;5056175;28;20110;-27
2022/12/26 16:05:58;;;;;;;1.70;1.60;;;;;;;;;;5056691;28;20021;-28
2022/12/26 16:08:31;;;;;;;1.88;1.77;;;;;;;;;;5056347;28;20025;-28
2022/12/26 16:11:26;;;;;;;1.92;1.83;;;;;;;;;;5056276;28;20036;-28
2022/12/26 16:13:58;;;;;;;2.03;1.92;;;;;;;;;;5043251;28;20049;-28
2022/12/26 16:16:31;;;;;;;1.98;1.88;;;;;;;;;;5056187;28;20028;-28
2022/12/26 16:18:58;;;;;;;1.85;1.67;;;;;;;;;;5056443;28;20021;-28
2022/12/26 16:24:13;;;;;;;2.05;1.85;;;;;;;;;;5056379;28;20098;-28
2022/12/26 16:26:41;;;;;;;1.60;1.50;;;;;;;;;;5056307;28;20028;-28
2022/12/26 16:29:09;;;;;;;1.38;1.38;;;;;;;;;;5055291;28;20033;-28
2022/12/26 16:31:35;;;;;;;1.90;1.80;;;;;;;;;;5056631;28;20179;-28
2022/12/26 16:34:01;;;;;;;1.85;1.75;;;;;;;;;;5055784;28;20021;-28
2022/12/26 16:36:28;;;;;;;1.90;1.80;;;;;;;;;;5055765;28;20086;-28
2022/12/26 16:38:55;;;;;;;1.88;1.77;;;;;;;;;;5055759;28;20044;-28
2022/12/26 16:41:21;;;;;;;2.30;2.13;;;;;;;;;;5055720;28;20032;-27
2022/12/26 16:43:48;;;;;;;1.90;1.80;;;;;;;;;;5055881;28;20028;-28
2022/12/26 16:46:17;;;;;;;1.77;1.67;;;;;;;;;;5055638;28;20104;-28
2022/12/26 16:48:44;;;;;;;1.80;1.70;;;;;;;;;;5055641;28;20403;-27
2022/12/26 16:51:29;;;;;;;1.90;1.80;;;;;;;;;;5056045;28;20029;-28
2022/12/26 16:53:55;;;;;;;2.08;1.98;;;;;;;;;;5055471;28;20359;-28
2022/12/26 16:56:25;;;;;;;1.63;1.52;;;;;;;;;;5055725;28;20436;-28
2022/12/26 16:58:57;;;;;;;1.80;1.70;;;;;;;;;;5054479;28;20029;-28
2022/12/26 17:01:23;;;;;;;2.08;1.92;;;;;;;;;;5055628;28;20037;-28
2022/12/26 17:03:55;;;;;;;1.80;1.70;;;;;;;;;;5055113;28;20044;-27
2022/12/26 17:06:28;;;;;;;1.77;1.67;;;;;;;;;;5054740;28;20021;-28
2022/12/26 17:08:56;;;;;;;1.75;1.65;;;;;;;;;;5055446;28;20028;-29
2022/12/26 17:11:27;;;;;;;2.00;1.90;;;;;;;;;;5055390;28;20045;-28
2022/12/26 17:13:54;;;;;;;2.10;2.00;;;;;;;;;;5055115;28;20024;-28
2022/12/26 17:16:25;;;;;;;1.60;1.50;;;;;;;;;;5055387;28;20032;-27
2022/12/26 17:18:52;;;;;;;1.80;1.70;;;;;;;;;;5055403;28;20024;-28